createdAt,value
2018-02-02T00:00:44.405Z,0.00
2018-02-02T00:01:44.374Z,0.00
2018-02-02T00:02:44.364Z,0.00
2018-02-02T00:03:44.359Z,0.00
2018-02-02T00:04:44.342Z,0.00
2018-02-02T00:05:44.367Z,0.00
2018-02-02T00:06:44.343Z,0.00
2018-02-02T00:07:44.370Z,0.00
2018-02-02T00:08:44.305Z,0.00
2018-02-02T00:09:44.308Z,0.00
2018-02-02T00:10:44.307Z,0.00
2018-02-02T00:11:44.271Z,0.00
2018-02-02T00:12:44.262Z,0.00
2018-02-02T00:13:44.244Z,0.00
2018-02-02T00:14:44.254Z,0.00
2018-02-02T00:15:44.272Z,0.00
2018-02-02T00:16:44.223Z,0.00
2018-02-02T00:17:44.208Z,0.00
2018-02-02T00:18:44.205Z,0.00
2018-02-02T00:19:44.215Z,0.00
2018-02-02T00:20:44.193Z,0.00
2018-02-02T00:21:44.163Z,0.00
2018-02-02T00:22:44.218Z,0.00
2018-02-02T00:23:44.140Z,0.00
2018-02-02T00:24:44.132Z,0.00
2018-02-02T00:25:44.125Z,0.00
2018-02-02T00:26:44.141Z,0.00
2018-02-02T00:27:44.110Z,0.00
2018-02-02T00:28:44.089Z,0.00
2018-02-02T00:29:44.086Z,0.00
2018-02-02T00:30:44.091Z,0.00
2018-02-02T00:31:44.098Z,0.00
2018-02-02T00:32:44.055Z,0.00
2018-02-02T00:33:44.037Z,0.00
2018-02-02T00:34:44.037Z,0.00
2018-02-02T00:35:44.018Z,0.00
2018-02-02T00:36:44.012Z,0.00
2018-02-02T00:37:44.017Z,0.00
2018-02-02T00:38:44.017Z,0.00
2018-02-02T00:39:43.982Z,0.00
2018-02-02T00:40:43.970Z,0.00
2018-02-02T00:41:43.958Z,0.00
2018-02-02T00:42:43.986Z,0.00
2018-02-02T00:43:43.932Z,0.00
2018-02-02T00:44:43.923Z,0.00
2018-02-02T00:45:43.913Z,0.00
2018-02-02T00:46:43.917Z,0.00
2018-02-02T00:47:43.917Z,0.00
2018-02-02T00:48:43.892Z,0.00
2018-02-02T00:49:43.870Z,0.00
2018-02-02T00:50:43.896Z,0.00
2018-02-02T00:51:43.844Z,0.00
2018-02-02T00:52:43.863Z,0.00
2018-02-02T00:53:43.874Z,0.00
2018-02-02T00:54:43.820Z,0.00
2018-02-02T00:55:43.883Z,0.00
2018-02-02T00:56:43.833Z,0.00
2018-02-02T00:57:43.802Z,0.00
2018-02-02T00:58:43.800Z,0.00
2018-02-02T00:59:43.767Z,0.00
2018-02-02T01:00:43.766Z,0.00
2018-02-02T01:01:43.746Z,0.00
2018-02-02T01:02:43.752Z,0.00
2018-02-02T01:03:43.735Z,0.00
2018-02-02T01:04:43.707Z,0.00
2018-02-02T01:05:43.705Z,0.00
2018-02-02T01:06:43.689Z,0.00
2018-02-02T01:07:43.717Z,0.00
2018-02-02T01:08:43.719Z,0.00
2018-02-02T01:09:43.680Z,0.00
2018-02-02T01:10:43.646Z,0.00
2018-02-02T01:11:43.649Z,0.00
2018-02-02T01:12:43.630Z,0.00
2018-02-02T01:13:43.612Z,0.00
2018-02-02T01:14:43.624Z,0.00
2018-02-02T01:15:43.593Z,0.00
2018-02-02T01:16:43.579Z,0.00
2018-02-02T01:17:43.585Z,0.00
2018-02-02T01:18:43.577Z,0.00
2018-02-02T01:19:43.565Z,0.00
2018-02-02T01:20:43.554Z,0.00
2018-02-02T01:21:43.530Z,0.00
2018-02-02T01:22:43.515Z,0.00
2018-02-02T01:23:43.544Z,0.00
2018-02-02T01:24:43.514Z,0.00
2018-02-02T01:25:43.484Z,0.00
2018-02-02T01:26:43.470Z,0.00
2018-02-02T01:27:43.481Z,0.00
2018-02-02T01:28:43.455Z,0.00
2018-02-02T01:29:43.460Z,0.00
2018-02-02T01:30:43.428Z,0.00
2018-02-02T01:31:43.413Z,0.00
2018-02-02T01:32:43.448Z,0.00
2018-02-02T01:33:43.396Z,0.00
2018-02-02T01:34:43.408Z,0.00
2018-02-02T01:35:43.401Z,0.00
2018-02-02T01:36:43.368Z,0.00
2018-02-02T01:37:43.348Z,0.00
2018-02-02T01:38:43.363Z,0.00
2018-02-02T01:39:43.332Z,0.00
2018-02-02T01:40:43.341Z,0.00
2018-02-02T01:41:43.328Z,0.00
2018-02-02T01:42:43.299Z,0.00
2018-02-02T01:43:43.287Z,0.00
2018-02-02T01:44:43.280Z,0.00
2018-02-02T01:45:43.270Z,0.00
2018-02-02T01:46:43.283Z,0.00
2018-02-02T01:47:43.239Z,0.00
2018-02-02T01:48:43.256Z,0.00
2018-02-02T01:49:43.223Z,0.00
2018-02-02T01:50:43.211Z,0.00
2018-02-02T01:51:43.236Z,0.00
2018-02-02T01:52:43.184Z,0.00
2018-02-02T01:53:43.215Z,0.00
2018-02-02T01:54:43.176Z,0.00
2018-02-02T01:55:43.157Z,0.00
2018-02-02T01:56:43.174Z,0.00
2018-02-02T01:57:43.137Z,0.00
2018-02-02T01:58:43.159Z,0.00
2018-02-02T01:59:43.117Z,0.00
2018-02-02T02:00:43.115Z,0.00
2018-02-02T02:01:43.120Z,0.00
2018-02-02T02:02:43.084Z,0.00
2018-02-02T02:03:43.073Z,0.00
2018-02-02T02:04:43.087Z,0.00
2018-02-02T02:05:43.064Z,0.00
2018-02-02T02:06:43.098Z,0.00
2018-02-02T02:07:43.053Z,0.00
2018-02-02T02:08:43.025Z,0.00
2018-02-02T02:09:43.042Z,0.00
2018-02-02T02:10:43.003Z,0.00
2018-02-02T02:11:42.998Z,0.00
2018-02-02T02:12:43.001Z,0.00
2018-02-02T02:13:42.968Z,0.00
2018-02-02T02:14:42.980Z,0.00
2018-02-02T02:15:42.989Z,0.00
2018-02-02T02:16:42.942Z,0.00
2018-02-02T02:17:42.948Z,0.00
2018-02-02T02:18:42.936Z,0.00
2018-02-02T02:19:42.905Z,0.00
2018-02-02T02:20:42.898Z,0.00
2018-02-02T02:21:42.890Z,0.00
2018-02-02T02:22:42.918Z,0.00
2018-02-02T02:23:42.908Z,0.00
2018-02-02T02:24:42.897Z,0.00
2018-02-02T02:25:42.851Z,0.00
2018-02-02T02:26:42.837Z,0.00
2018-02-02T02:27:42.833Z,0.00
2018-02-02T02:28:42.842Z,0.00
2018-02-02T02:29:42.819Z,0.00
2018-02-02T02:30:42.816Z,0.00
2018-02-02T02:31:42.794Z,0.00
2018-02-02T02:32:42.787Z,0.00
2018-02-02T02:33:42.805Z,0.00
2018-02-02T02:34:42.770Z,0.00
2018-02-02T02:35:42.761Z,0.00
2018-02-02T02:36:42.735Z,0.00
2018-02-02T02:37:42.733Z,0.00
2018-02-02T02:38:42.736Z,0.00
2018-02-02T02:39:42.736Z,0.00
2018-02-02T02:40:42.721Z,0.00
2018-02-02T02:41:42.682Z,0.00
2018-02-02T02:42:42.672Z,0.00
2018-02-02T02:43:42.680Z,0.00
2018-02-02T02:44:42.662Z,0.00
2018-02-02T02:45:42.637Z,0.00
2018-02-02T02:46:42.633Z,0.00
2018-02-02T02:47:42.614Z,0.00
2018-02-02T02:48:42.614Z,0.00
2018-02-02T02:49:42.622Z,0.00
2018-02-02T02:50:42.603Z,0.00
2018-02-02T02:51:42.576Z,0.00
2018-02-02T02:52:42.569Z,0.00
2018-02-02T02:53:42.552Z,0.00
2018-02-02T02:54:42.588Z,0.00
2018-02-02T02:55:42.564Z,0.00
2018-02-02T02:56:43.495Z,0.00
2018-02-02T02:57:42.521Z,0.00
2018-02-02T02:58:42.518Z,0.00
2018-02-02T02:59:42.501Z,0.00
2018-02-02T03:00:42.516Z,0.00
2018-02-02T03:01:42.499Z,0.00
2018-02-02T03:02:42.475Z,0.00
2018-02-02T03:03:42.452Z,0.00
2018-02-02T03:04:42.451Z,0.00
2018-02-02T03:05:42.446Z,0.00
2018-02-02T03:06:42.452Z,0.00
2018-02-02T03:07:42.420Z,0.00
2018-02-02T03:08:42.438Z,0.00
2018-02-02T03:09:42.402Z,0.00
2018-02-02T03:10:42.408Z,0.00
2018-02-02T03:11:42.390Z,0.00
2018-02-02T03:12:42.517Z,0.00
2018-02-02T03:13:42.345Z,0.00
2018-02-02T03:14:42.339Z,0.00
2018-02-02T03:15:42.330Z,0.00
2018-02-02T03:16:42.332Z,0.00
2018-02-02T03:17:42.326Z,0.00
2018-02-02T03:18:42.294Z,0.00
2018-02-02T03:19:42.282Z,0.00
2018-02-02T03:20:42.266Z,0.00
2018-02-02T03:21:42.285Z,0.00
2018-02-02T03:22:42.256Z,0.00
2018-02-02T03:23:42.234Z,0.00
2018-02-02T03:24:42.226Z,0.00
2018-02-02T03:25:42.243Z,0.00
2018-02-02T03:26:42.248Z,0.00
2018-02-02T03:27:42.205Z,0.00
2018-02-02T03:28:42.180Z,0.00
2018-02-02T03:29:42.174Z,0.00
2018-02-02T03:30:42.175Z,0.00
2018-02-02T03:31:42.175Z,0.00
2018-02-02T03:32:42.168Z,0.00
2018-02-02T03:33:42.132Z,0.00
2018-02-02T03:34:42.122Z,0.00
2018-02-02T03:35:42.124Z,0.00
2018-02-02T03:36:42.091Z,0.00
2018-02-02T03:37:42.107Z,0.00
2018-02-02T03:38:42.080Z,0.00
2018-02-02T03:39:42.068Z,0.00
2018-02-02T03:40:42.086Z,0.00
2018-02-02T03:41:42.046Z,0.00
2018-02-02T03:42:42.053Z,0.00
2018-02-02T03:43:42.045Z,0.00
2018-02-02T03:44:42.018Z,0.00
2018-02-02T03:45:42.001Z,0.00
2018-02-02T03:46:42.010Z,0.00
2018-02-02T03:47:41.990Z,0.00
2018-02-02T03:48:41.995Z,0.00
2018-02-02T03:49:41.964Z,0.00
2018-02-02T03:50:41.951Z,0.00
2018-02-02T03:51:41.958Z,0.00
2018-02-02T03:52:41.965Z,0.00
2018-02-02T03:53:41.943Z,0.00
2018-02-02T03:54:41.921Z,0.00
2018-02-02T03:55:41.934Z,0.00
2018-02-02T03:56:41.924Z,0.00
2018-02-02T03:57:41.878Z,0.00
2018-02-02T03:58:41.884Z,0.00
2018-02-02T03:59:41.880Z,0.00
2018-02-02T04:00:41.843Z,0.00
2018-02-02T04:01:41.828Z,0.00
2018-02-02T04:02:41.828Z,0.00
2018-02-02T04:03:41.824Z,0.00
2018-02-02T04:04:41.818Z,0.00
2018-02-02T04:05:41.806Z,0.00
2018-02-02T04:06:41.778Z,0.00
2018-02-02T04:07:41.768Z,0.00
2018-02-02T04:08:41.765Z,0.00
2018-02-02T04:09:41.736Z,0.00
2018-02-02T04:10:41.775Z,0.00
2018-02-02T04:11:41.752Z,0.00
2018-02-02T04:12:41.714Z,0.00
2018-02-02T04:13:41.705Z,0.00
2018-02-02T04:14:41.713Z,0.00
2018-02-02T04:15:41.704Z,0.00
2018-02-02T04:16:41.666Z,0.00
2018-02-02T04:17:41.675Z,0.00
2018-02-02T04:18:41.654Z,0.00
2018-02-02T04:19:41.644Z,0.00
2018-02-02T04:20:41.646Z,0.00
2018-02-02T04:21:41.629Z,0.00
2018-02-02T04:22:41.600Z,0.00
2018-02-02T04:23:41.636Z,0.00
2018-02-02T04:24:41.580Z,0.00
2018-02-02T04:25:41.591Z,0.00
2018-02-02T04:26:41.602Z,0.00
2018-02-02T04:27:41.553Z,0.00
2018-02-02T04:28:41.539Z,0.00
2018-02-02T04:29:41.526Z,0.00
2018-02-02T04:30:41.544Z,0.00
2018-02-02T04:31:41.516Z,0.00
2018-02-02T04:32:41.499Z,0.00
2018-02-02T04:33:41.498Z,0.00
2018-02-02T04:34:41.498Z,0.00
2018-02-02T04:35:41.479Z,0.00
2018-02-02T04:36:41.494Z,0.00
2018-02-02T04:37:41.449Z,0.00
2018-02-02T04:38:41.432Z,0.00
2018-02-02T04:39:41.442Z,0.00
2018-02-02T04:40:41.410Z,0.00
2018-02-02T04:41:41.471Z,0.00
2018-02-02T04:42:41.400Z,0.00
2018-02-02T04:43:41.379Z,0.00
2018-02-02T04:44:41.369Z,0.00
2018-02-02T04:45:41.395Z,0.00
2018-02-02T04:46:41.390Z,0.00
2018-02-02T04:47:41.336Z,0.00
2018-02-02T04:48:41.326Z,0.00
2018-02-02T04:49:41.315Z,0.00
2018-02-02T04:50:41.319Z,0.00
2018-02-02T04:51:41.337Z,0.00
2018-02-02T04:52:41.324Z,0.00
2018-02-02T04:53:41.279Z,0.00
2018-02-02T04:54:41.265Z,0.00
2018-02-02T04:55:41.254Z,0.00
2018-02-02T04:56:41.247Z,0.00
2018-02-02T04:57:41.262Z,0.00
2018-02-02T04:58:41.220Z,0.00
2018-02-02T04:59:41.219Z,0.00
2018-02-02T05:00:41.200Z,0.00
2018-02-02T05:01:41.187Z,0.00
2018-02-02T05:02:41.231Z,0.00
2018-02-02T05:03:41.168Z,0.00
2018-02-02T05:04:41.161Z,0.00
2018-02-02T05:05:41.148Z,0.00
2018-02-02T05:06:41.166Z,0.00
2018-02-02T05:07:41.171Z,0.00
2018-02-02T05:08:41.148Z,0.00
2018-02-02T05:09:41.105Z,0.00
2018-02-02T05:10:41.137Z,0.00
2018-02-02T05:11:41.089Z,0.00
2018-02-02T05:12:41.101Z,0.00
2018-02-02T05:13:41.070Z,0.00
2018-02-02T05:14:41.055Z,0.00
2018-02-02T05:15:41.044Z,0.00
2018-02-02T05:16:41.036Z,0.00
2018-02-02T05:17:41.022Z,0.00
2018-02-02T05:18:41.031Z,0.00
2018-02-02T05:19:41.009Z,0.00
2018-02-02T05:20:40.988Z,0.00
2018-02-02T05:21:40.980Z,0.00
2018-02-02T05:22:40.996Z,0.00
2018-02-02T05:23:40.992Z,0.00
2018-02-02T05:24:40.994Z,0.00
2018-02-02T05:25:40.940Z,0.00
2018-02-02T05:26:40.932Z,0.00
2018-02-02T05:27:40.918Z,0.00
2018-02-02T05:28:40.931Z,0.00
2018-02-02T05:29:40.933Z,0.00
2018-02-02T05:30:40.898Z,0.00
2018-02-02T05:31:40.872Z,0.00
2018-02-02T05:32:40.871Z,0.00
2018-02-02T05:33:40.877Z,0.00
2018-02-02T05:34:40.895Z,0.00
2018-02-02T05:35:40.840Z,0.00
2018-02-02T05:36:40.835Z,0.00
2018-02-02T05:37:40.853Z,0.00
2018-02-02T05:38:40.812Z,0.00
2018-02-02T05:39:40.814Z,0.00
2018-02-02T05:40:40.808Z,0.00
2018-02-02T05:41:40.781Z,0.00
2018-02-02T05:42:40.765Z,0.00
2018-02-02T05:43:40.755Z,0.00
2018-02-02T05:44:40.755Z,0.00
2018-02-02T05:45:40.748Z,0.00
2018-02-02T05:46:40.722Z,0.00
2018-02-02T05:47:40.721Z,0.00
2018-02-02T05:48:40.725Z,0.00
2018-02-02T05:49:40.694Z,0.00
2018-02-02T05:50:40.703Z,0.00
2018-02-02T05:51:40.704Z,0.00
2018-02-02T05:52:41.528Z,0.00
2018-02-02T05:53:40.644Z,0.00
2018-02-02T05:54:40.675Z,0.00
2018-02-02T05:55:40.629Z,0.00
2018-02-02T05:56:40.636Z,0.00
2018-02-02T05:57:40.607Z,0.00
2018-02-02T05:58:40.596Z,0.00
2018-02-02T05:59:40.586Z,0.00
2018-02-02T06:00:40.573Z,0.00
2018-02-02T06:01:40.583Z,0.00
2018-02-02T06:02:40.553Z,0.00
2018-02-02T06:03:40.561Z,0.00
2018-02-02T06:04:40.544Z,0.00
2018-02-02T06:05:40.524Z,0.00
2018-02-02T06:06:40.593Z,0.00
2018-02-02T06:07:40.532Z,0.00
2018-02-02T06:08:40.518Z,0.00
2018-02-02T06:09:40.482Z,0.00
2018-02-02T06:10:40.473Z,0.00
2018-02-02T06:11:40.459Z,0.00
2018-02-02T06:12:40.477Z,0.00
2018-02-02T06:13:40.450Z,0.00
2018-02-02T06:14:40.429Z,0.00
2018-02-02T06:15:40.418Z,0.00
2018-02-02T06:16:40.405Z,0.00
2018-02-02T06:17:40.420Z,0.00
2018-02-02T06:18:40.391Z,0.00
2018-02-02T06:19:40.392Z,0.00
2018-02-02T06:20:40.365Z,0.00
2018-02-02T06:21:40.358Z,0.00
2018-02-02T06:22:40.373Z,0.00
2018-02-02T06:23:40.375Z,0.00
2018-02-02T06:24:40.390Z,0.00
2018-02-02T06:25:40.310Z,0.00
2018-02-02T06:26:40.305Z,0.00
2018-02-02T06:27:40.289Z,0.00
2018-02-02T06:28:40.287Z,0.00
2018-02-02T06:29:40.287Z,0.00
2018-02-02T06:30:40.266Z,0.00
2018-02-02T06:31:40.250Z,0.00
2018-02-02T06:32:40.241Z,0.00
2018-02-02T06:33:40.234Z,0.00
2018-02-02T06:34:40.273Z,0.00
2018-02-02T06:35:40.204Z,0.00
2018-02-02T06:36:40.202Z,0.00
2018-02-02T06:37:40.220Z,0.00
2018-02-02T06:38:40.198Z,0.00
2018-02-02T06:39:40.234Z,0.00
2018-02-02T06:40:40.173Z,0.00
2018-02-02T06:41:40.298Z,0.00
2018-02-02T06:42:40.199Z,0.00
2018-02-02T06:43:40.400Z,4.00
2018-02-02T06:44:40.470Z,0.00
2018-02-02T06:45:40.138Z,0.00
2018-02-02T06:46:41.021Z,4.00
2018-02-02T06:47:40.090Z,4.00
2018-02-02T06:48:40.082Z,4.00
2018-02-02T06:49:40.068Z,8.00
2018-02-02T06:50:40.091Z,4.00
2018-02-02T06:51:40.051Z,4.00
2018-02-02T06:52:40.018Z,8.00
2018-02-02T06:53:40.021Z,8.00
2018-02-02T06:54:40.010Z,8.00
2018-02-02T06:55:40.028Z,12.00
2018-02-02T06:56:40.024Z,12.00
2018-02-02T06:57:39.985Z,12.00
2018-02-02T06:58:39.976Z,16.00
2018-02-02T06:59:39.946Z,16.00
2018-02-02T07:00:39.941Z,16.00
2018-02-02T07:01:39.966Z,16.00
2018-02-02T07:02:39.932Z,16.00
2018-02-02T07:03:39.920Z,24.00
2018-02-02T07:04:39.911Z,20.00
2018-02-02T07:05:39.897Z,20.00
2018-02-02T07:06:39.904Z,24.00
2018-02-02T07:07:39.891Z,24.00
2018-02-02T07:08:39.860Z,32.00
2018-02-02T07:09:39.852Z,32.00
2018-02-02T07:10:39.872Z,36.00
2018-02-02T07:11:39.838Z,44.00
2018-02-02T07:12:39.837Z,48.00
2018-02-02T07:13:39.815Z,56.00
2018-02-02T07:14:39.794Z,48.00
2018-02-02T07:15:39.786Z,44.00
2018-02-02T07:16:39.777Z,56.00
2018-02-02T07:17:39.792Z,68.00
2018-02-02T07:18:39.739Z,52.00
2018-02-02T07:19:39.771Z,48.00
2018-02-02T07:20:39.735Z,44.00
2018-02-02T07:21:39.726Z,60.00
2018-02-02T07:22:39.734Z,60.00
2018-02-02T07:23:39.737Z,64.00
2018-02-02T07:24:39.720Z,68.00
2018-02-02T07:25:39.704Z,64.00
2018-02-02T07:26:39.697Z,52.00
2018-02-02T07:27:39.651Z,48.00
2018-02-02T07:28:39.708Z,68.00
2018-02-02T07:29:39.633Z,100.00
2018-02-02T07:30:39.675Z,104.00
2018-02-02T07:31:39.657Z,92.00
2018-02-02T07:32:39.633Z,80.00
2018-02-02T07:33:39.607Z,104.00
2018-02-02T07:34:39.605Z,112.00
2018-02-02T07:35:39.549Z,124.00
2018-02-02T07:36:39.566Z,120.00
2018-02-02T07:37:39.557Z,140.00
2018-02-02T07:38:39.546Z,104.00
2018-02-02T07:39:39.549Z,116.00
2018-02-02T07:40:39.516Z,112.00
2018-02-02T07:41:39.547Z,144.00
2018-02-02T07:42:39.517Z,144.00
2018-02-02T07:43:39.485Z,160.00
2018-02-02T07:44:39.525Z,180.00
2018-02-02T07:45:39.469Z,136.00
2018-02-02T07:46:39.455Z,144.00
2018-02-02T07:47:39.448Z,180.00
2018-02-02T07:48:39.432Z,184.00
2018-02-02T07:49:39.440Z,168.00
2018-02-02T07:50:39.440Z,196.00
2018-02-02T07:51:39.409Z,204.00
2018-02-02T07:52:39.394Z,192.00
2018-02-02T07:53:39.379Z,216.00
2018-02-02T07:54:39.375Z,232.00
2018-02-02T07:55:39.384Z,204.00
2018-02-02T07:56:39.401Z,192.00
2018-02-02T07:57:39.361Z,216.00
2018-02-02T07:58:39.338Z,184.00
2018-02-02T07:59:39.323Z,212.00
2018-02-02T08:00:39.348Z,212.00
2018-02-02T08:01:39.308Z,232.00
2018-02-02T08:02:39.284Z,212.00
2018-02-02T08:03:39.294Z,192.00
2018-02-02T08:04:39.267Z,260.00
2018-02-02T08:05:39.279Z,232.00
2018-02-02T08:06:39.246Z,260.00
2018-02-02T08:07:39.238Z,260.00
2018-02-02T08:08:39.229Z,228.00
2018-02-02T08:09:39.205Z,220.00
2018-02-02T08:10:39.223Z,268.00
2018-02-02T08:11:39.194Z,288.00
2018-02-02T08:12:39.203Z,304.00
2018-02-02T08:13:39.224Z,292.00
2018-02-02T08:14:39.168Z,308.00
2018-02-02T08:15:39.161Z,320.00
2018-02-02T08:16:39.138Z,276.00
2018-02-02T08:17:39.120Z,312.00
2018-02-02T08:18:39.115Z,336.00
2018-02-02T08:19:39.103Z,360.00
2018-02-02T08:20:39.078Z,320.00
2018-02-02T08:21:39.115Z,264.00
2018-02-02T08:22:39.078Z,252.00
2018-02-02T08:23:39.072Z,228.00
2018-02-02T08:24:39.051Z,296.00
2018-02-02T08:25:39.612Z,344.00
2018-02-02T08:26:39.064Z,304.00
2018-02-02T08:27:39.025Z,324.00
2018-02-02T08:28:39.017Z,356.00
2018-02-02T08:29:38.992Z,288.00
2018-02-02T08:30:38.995Z,348.00
2018-02-02T08:31:38.963Z,284.00
2018-02-02T08:32:38.989Z,280.00
2018-02-02T08:33:38.936Z,344.00
2018-02-02T08:34:38.936Z,344.00
2018-02-02T08:35:38.944Z,376.00
2018-02-02T08:36:38.925Z,340.00
2018-02-02T08:37:38.950Z,384.00
2018-02-02T08:38:38.909Z,396.00
2018-02-02T08:39:38.881Z,408.00
2018-02-02T08:40:38.887Z,388.00
2018-02-02T08:41:38.862Z,412.00
2018-02-02T08:42:38.884Z,460.00
2018-02-02T08:43:38.866Z,472.00
2018-02-02T08:44:38.868Z,500.00
2018-02-02T08:45:38.848Z,476.00
2018-02-02T08:46:38.827Z,460.00
2018-02-02T08:47:38.831Z,452.00
2018-02-02T08:48:38.800Z,444.00
2018-02-02T08:49:38.814Z,488.00
2018-02-02T08:50:38.774Z,452.00
2018-02-02T08:51:38.777Z,480.00
2018-02-02T08:52:38.778Z,548.00
2018-02-02T08:53:38.732Z,488.00
2018-02-02T08:54:38.743Z,484.00
2018-02-02T08:55:38.722Z,392.00
2018-02-02T08:56:38.716Z,396.00
2018-02-02T08:57:38.739Z,404.00
2018-02-02T08:58:38.675Z,368.00
2018-02-02T08:59:38.704Z,440.00
2018-02-02T09:00:38.688Z,416.00
2018-02-02T09:01:38.677Z,320.00
2018-02-02T09:02:38.675Z,388.00
2018-02-02T09:03:38.645Z,440.00
2018-02-02T09:04:38.623Z,496.00
2018-02-02T09:05:38.646Z,500.00
2018-02-02T09:06:38.597Z,408.00
2018-02-02T09:07:38.615Z,536.00
2018-02-02T09:08:38.595Z,556.00
2018-02-02T09:09:38.581Z,572.00
2018-02-02T09:10:39.133Z,640.00
2018-02-02T09:11:38.558Z,628.00
2018-02-02T09:12:38.862Z,624.00
2018-02-02T09:13:38.535Z,600.00
2018-02-02T09:14:38.539Z,624.00
2018-02-02T09:15:38.539Z,676.00
2018-02-02T09:16:38.503Z,668.00
2018-02-02T09:17:38.522Z,636.00
2018-02-02T09:18:38.486Z,716.00
2018-02-02T09:19:38.509Z,784.00
2018-02-02T09:20:38.464Z,788.00
2018-02-02T09:21:38.492Z,804.00
2018-02-02T09:22:38.461Z,824.00
2018-02-02T09:23:39.098Z,696.00
2018-02-02T09:24:38.461Z,600.00
2018-02-02T09:25:38.415Z,572.00
2018-02-02T09:26:38.435Z,556.00
2018-02-02T09:27:38.417Z,504.00
2018-02-02T09:28:39.133Z,468.00
2018-02-02T09:29:38.345Z,544.00
2018-02-02T09:30:38.366Z,424.00
2018-02-02T09:31:38.350Z,412.00
2018-02-02T09:32:38.354Z,432.00
2018-02-02T09:33:38.355Z,420.00
2018-02-02T09:34:38.315Z,412.00
2018-02-02T09:35:38.294Z,352.00
2018-02-02T09:36:38.293Z,356.00
2018-02-02T09:37:38.281Z,424.00
2018-02-02T09:38:38.297Z,448.00
2018-02-02T09:39:38.249Z,432.00
2018-02-02T09:40:38.246Z,368.00
2018-02-02T09:41:38.255Z,416.00
2018-02-02T09:42:38.226Z,488.00
2018-02-02T09:43:38.236Z,424.00
2018-02-02T09:44:38.214Z,408.00
2018-02-02T09:45:38.190Z,476.00
2018-02-02T09:46:38.206Z,392.00
2018-02-02T09:47:38.194Z,448.00
2018-02-02T09:48:38.179Z,540.00
2018-02-02T09:49:38.171Z,576.00
2018-02-02T09:50:38.146Z,544.00
2018-02-02T09:51:38.128Z,544.00
2018-02-02T09:52:38.119Z,612.00
2018-02-02T09:53:38.119Z,800.00
2018-02-02T09:54:38.142Z,760.00
2018-02-02T09:55:38.086Z,776.00
2018-02-02T09:56:38.077Z,820.00
2018-02-02T09:57:38.045Z,624.00
2018-02-02T09:58:38.059Z,700.00
2018-02-02T09:59:38.073Z,884.00
2018-02-02T10:00:38.033Z,852.00
2018-02-02T10:01:38.033Z,780.00
2018-02-02T10:02:38.056Z,764.00
2018-02-02T10:03:38.019Z,728.00
2018-02-02T10:04:37.996Z,820.00
2018-02-02T10:05:37.996Z,772.00
2018-02-02T10:06:38.001Z,760.00
2018-02-02T10:07:37.940Z,924.00
2018-02-02T10:08:37.995Z,976.00
2018-02-02T10:09:37.938Z,724.00
2018-02-02T10:10:37.942Z,768.00
2018-02-02T10:11:37.909Z,836.00
2018-02-02T10:12:37.905Z,916.00
2018-02-02T10:13:37.895Z,760.00
2018-02-02T10:14:37.876Z,632.00
2018-02-02T10:15:37.898Z,688.00
2018-02-02T10:16:37.871Z,732.00
2018-02-02T10:17:37.871Z,592.00
2018-02-02T10:18:37.848Z,724.00
2018-02-02T10:19:37.831Z,632.00
2018-02-02T10:20:37.841Z,648.00
2018-02-02T10:21:37.812Z,668.00
2018-02-02T10:22:37.783Z,604.00
2018-02-02T10:23:38.648Z,660.00
2018-02-02T10:24:37.786Z,808.00
2018-02-02T10:25:37.805Z,844.00
2018-02-02T10:26:37.798Z,772.00
2018-02-02T10:27:37.751Z,832.00
2018-02-02T10:28:37.735Z,944.00
2018-02-02T10:29:38.658Z,1156.00
2018-02-02T10:30:37.728Z,844.00
2018-02-02T10:31:37.711Z,1088.00
2018-02-02T10:32:37.730Z,1120.00
2018-02-02T10:33:38.671Z,936.00
2018-02-02T10:34:37.666Z,952.00
2018-02-02T10:35:37.643Z,968.00
2018-02-02T10:36:37.649Z,976.00
2018-02-02T10:37:38.610Z,952.00
2018-02-02T10:38:37.637Z,792.00
2018-02-02T10:39:37.621Z,824.00
2018-02-02T10:40:37.610Z,940.00
2018-02-02T10:41:37.626Z,800.00
2018-02-02T10:42:37.592Z,664.00
2018-02-02T10:43:37.577Z,656.00
2018-02-02T10:44:37.569Z,764.00
2018-02-02T10:45:37.554Z,908.00
2018-02-02T10:46:37.587Z,696.00
2018-02-02T10:47:37.558Z,872.00
2018-02-02T10:48:37.511Z,972.00
2018-02-02T10:49:37.539Z,832.00
2018-02-02T10:50:37.505Z,808.00
2018-02-02T10:51:37.512Z,816.00
2018-02-02T10:52:38.130Z,672.00
2018-02-02T10:53:37.473Z,660.00
2018-02-02T10:54:37.485Z,764.00
2018-02-02T10:55:37.450Z,672.00
2018-02-02T10:56:37.466Z,604.00
2018-02-02T10:57:37.426Z,632.00
2018-02-02T10:58:37.433Z,580.00
2018-02-02T10:59:37.396Z,492.00
2018-02-02T11:00:37.411Z,560.00
2018-02-02T11:01:37.408Z,580.00
2018-02-02T11:02:37.424Z,796.00
2018-02-02T11:03:37.370Z,704.00
2018-02-02T11:04:37.395Z,832.00
2018-02-02T11:05:37.390Z,836.00
2018-02-02T11:06:37.355Z,916.00
2018-02-02T11:07:37.350Z,924.00
2018-02-02T11:08:37.320Z,1080.00
2018-02-02T11:09:37.311Z,984.00
2018-02-02T11:10:37.305Z,888.00
2018-02-02T11:11:37.278Z,1144.00
2018-02-02T11:12:37.296Z,924.00
2018-02-02T11:13:37.308Z,784.00
2018-02-02T11:14:37.260Z,748.00
2018-02-02T11:15:37.251Z,696.00
2018-02-02T11:16:37.248Z,900.00
2018-02-02T11:17:37.290Z,1016.00
2018-02-02T11:18:37.307Z,976.00
2018-02-02T11:19:37.300Z,916.00
2018-02-02T11:20:37.291Z,860.00
2018-02-02T11:21:37.274Z,1004.00
2018-02-02T11:22:37.268Z,836.00
2018-02-02T11:23:37.222Z,852.00
2018-02-02T11:24:37.232Z,820.00
2018-02-02T11:25:37.235Z,736.00
2018-02-02T11:26:37.202Z,600.00
2018-02-02T11:27:37.156Z,564.00
2018-02-02T11:28:37.170Z,656.00
2018-02-02T11:29:37.115Z,696.00
2018-02-02T11:30:37.142Z,660.00
2018-02-02T11:31:37.129Z,736.00
2018-02-02T11:32:37.108Z,676.00
2018-02-02T11:33:37.074Z,724.00
2018-02-02T11:34:37.070Z,856.00
2018-02-02T11:35:37.068Z,812.00
2018-02-02T11:36:37.051Z,804.00
2018-02-02T11:37:37.037Z,888.00
2018-02-02T11:38:37.032Z,984.00
2018-02-02T11:39:37.068Z,1016.00
2018-02-02T11:40:36.999Z,852.00
2018-02-02T11:41:36.992Z,824.00
2018-02-02T11:42:36.970Z,852.00
2018-02-02T11:43:37.008Z,904.00
2018-02-02T11:44:36.986Z,904.00
2018-02-02T11:45:37.676Z,904.00
2018-02-02T11:46:37.706Z,872.00
2018-02-02T11:47:36.951Z,760.00
2018-02-02T11:48:36.927Z,788.00
2018-02-02T11:49:36.979Z,876.00
2018-02-02T11:50:36.922Z,1040.00
2018-02-02T11:51:36.966Z,1192.00
2018-02-02T11:52:36.899Z,1212.00
2018-02-02T11:53:36.875Z,1500.00
2018-02-02T11:54:36.891Z,1568.00
2018-02-02T11:55:36.885Z,1752.00
2018-02-02T11:56:36.852Z,1764.00
2018-02-02T11:57:36.809Z,1828.00
2018-02-02T11:58:36.841Z,1604.00
2018-02-02T11:59:36.847Z,1380.00
2018-02-02T12:00:36.820Z,1252.00
2018-02-02T12:01:36.808Z,1100.00
2018-02-02T12:02:36.891Z,904.00
2018-02-02T12:03:36.809Z,780.00
2018-02-02T12:04:36.811Z,736.00
2018-02-02T12:05:36.785Z,632.00
2018-02-02T12:06:36.771Z,600.00
2018-02-02T12:07:36.801Z,612.00
2018-02-02T12:08:36.816Z,636.00
2018-02-02T12:09:36.705Z,696.00
2018-02-02T12:10:36.746Z,628.00
2018-02-02T12:11:36.737Z,612.00
2018-02-02T12:12:36.780Z,612.00
2018-02-02T12:13:36.728Z,624.00
2018-02-02T12:14:36.661Z,560.00
2018-02-02T12:15:36.774Z,504.00
2018-02-02T12:16:36.695Z,564.00
2018-02-02T12:17:36.667Z,604.00
2018-02-02T12:18:36.612Z,576.00
2018-02-02T12:19:36.725Z,712.00
2018-02-02T12:20:36.628Z,716.00
2018-02-02T12:21:36.572Z,884.00
2018-02-02T12:22:36.618Z,1008.00
2018-02-02T12:23:36.620Z,936.00
2018-02-02T12:24:36.627Z,956.00
2018-02-02T12:25:36.655Z,912.00
2018-02-02T12:26:36.618Z,800.00
2018-02-02T12:27:37.218Z,828.00
2018-02-02T12:28:36.565Z,1044.00
2018-02-02T12:29:36.566Z,1248.00
2018-02-02T12:30:37.228Z,1188.00
2018-02-02T12:31:36.535Z,1132.00
2018-02-02T12:32:36.579Z,936.00
2018-02-02T12:33:36.462Z,808.00
2018-02-02T12:34:36.662Z,660.00
2018-02-02T12:35:41.479Z,648.00
2018-02-02T12:36:36.495Z,756.00
2018-02-02T12:37:36.449Z,836.00
2018-02-02T12:38:36.534Z,620.00
2018-02-02T12:39:36.412Z,544.00
2018-02-02T12:40:36.414Z,552.00
2018-02-02T12:41:36.414Z,604.00
2018-02-02T12:42:36.440Z,508.00
2018-02-02T12:43:36.373Z,472.00
2018-02-02T12:44:36.366Z,528.00
2018-02-02T12:45:36.467Z,580.00
2018-02-02T12:46:36.367Z,564.00
2018-02-02T12:47:36.343Z,508.00
2018-02-02T12:48:36.378Z,528.00
2018-02-02T12:49:36.363Z,568.00
2018-02-02T12:50:36.387Z,604.00
2018-02-02T12:51:36.340Z,640.00
2018-02-02T12:52:36.291Z,736.00
2018-02-02T12:53:36.416Z,892.00
2018-02-02T12:54:36.303Z,828.00